createdAt,value
2023-07-14T00:01:23.325Z,15.60
2023-07-14T00:03:51.194Z,15.50
2023-07-14T00:06:20.130Z,15.50
2023-07-14T00:08:49.533Z,15.60
2023-07-14T00:11:23.646Z,15.60
2023-07-14T00:13:52.415Z,15.70
2023-07-14T00:16:22.040Z,15.70
2023-07-14T00:18:49.219Z,15.80
2023-07-14T00:21:22.670Z,15.80
2023-07-14T00:23:50.619Z,15.80
2023-07-14T00:26:20.588Z,15.80
2023-07-14T00:28:50.913Z,15.90
2023-07-14T00:31:22.135Z,16.00
2023-07-14T00:33:51.879Z,16.10
2023-07-14T00:36:19.379Z,16.20
2023-07-14T00:38:46.889Z,16.20
2023-07-14T00:41:25.099Z,16.10
2023-07-14T00:43:53.238Z,16.20
2023-07-14T00:46:40.610Z,16.10
2023-07-14T00:49:14.950Z,16.10
2023-07-14T00:51:41.894Z,16.00
2023-07-14T00:54:28.069Z,16.00
2023-07-14T00:56:56.467Z,16.00
2023-07-14T00:59:34.696Z,16.00
2023-07-14T01:02:22.445Z,16.00
2023-07-14T01:05:01.112Z,16.00
2023-07-14T01:07:34.784Z,16.10
2023-07-14T01:10:02.036Z,16.20
2023-07-14T01:12:32.211Z,16.20
2023-07-14T01:14:59.754Z,16.20
2023-07-14T01:17:28.807Z,16.10
2023-07-14T01:20:01.954Z,16.10
2023-07-14T01:23:24.554Z,16.10
2023-07-14T01:26:06.735Z,16.10
2023-07-14T01:28:33.599Z,16.10
2023-07-14T01:31:00.972Z,16.10
2023-07-14T01:33:28.094Z,16.10
2023-07-14T01:36:00.733Z,16.10
2023-07-14T01:38:28.248Z,16.10
2023-07-14T01:40:55.063Z,16.10
2023-07-14T01:43:22.578Z,16.10
2023-07-14T01:45:58.340Z,16.00
2023-07-14T01:48:31.638Z,16.00
2023-07-14T01:51:02.280Z,16.00
2023-07-14T01:53:55.777Z,16.00
2023-07-14T01:56:25.933Z,16.00
2023-07-14T01:59:11.134Z,15.90
2023-07-14T02:01:42.505Z,15.90
2023-07-14T02:04:20.190Z,15.90
2023-07-14T02:06:47.501Z,15.90
2023-07-14T02:09:19.234Z,15.80
2023-07-14T02:11:50.696Z,15.80
2023-07-14T02:14:20.040Z,15.80
2023-07-14T02:16:49.072Z,15.80
2023-07-14T02:19:25.792Z,15.70
2023-07-14T02:21:55.917Z,15.80
2023-07-14T02:24:25.810Z,15.80
2023-07-14T02:26:57.831Z,15.80
2023-07-14T02:29:24.790Z,15.80
2023-07-14T02:32:03.611Z,15.70
2023-07-14T02:34:36.050Z,15.60
2023-07-14T02:37:05.613Z,15.60
2023-07-14T02:39:39.259Z,15.50
2023-07-14T02:42:06.591Z,15.50
2023-07-14T02:44:39.011Z,15.50
2023-07-14T02:47:17.659Z,15.40
2023-07-14T02:49:49.300Z,15.40
2023-07-14T02:52:16.740Z,15.40
2023-07-14T02:54:43.732Z,15.30
2023-07-14T02:57:10.544Z,15.30
2023-07-14T02:59:37.494Z,15.30
2023-07-14T03:02:06.216Z,15.30
2023-07-14T03:04:35.949Z,15.30
2023-07-14T03:07:04.081Z,15.30
2023-07-14T03:09:30.888Z,15.30
2023-07-14T03:11:57.702Z,15.30
2023-07-14T03:14:25.051Z,15.20
2023-07-14T03:16:52.015Z,15.20
2023-07-14T03:19:18.972Z,15.20
2023-07-14T03:21:46.199Z,15.20
2023-07-14T03:24:13.090Z,15.20
2023-07-14T03:26:40.112Z,15.30
2023-07-14T03:29:07.059Z,15.30
2023-07-14T03:31:33.971Z,15.30
2023-07-14T03:34:01.186Z,15.20
2023-07-14T03:36:28.186Z,15.30
2023-07-14T03:39:24.693Z,15.30
2023-07-14T03:41:52.675Z,15.30
2023-07-14T03:44:20.363Z,15.30
2023-07-14T03:46:47.537Z,15.30
2023-07-14T03:49:15.124Z,15.30
2023-07-14T03:51:42.344Z,15.30
2023-07-14T03:54:11.320Z,15.40
2023-07-14T03:56:38.505Z,15.40
2023-07-14T03:59:05.306Z,15.50
2023-07-14T04:01:32.261Z,15.50
2023-07-14T04:04:01.356Z,15.60
2023-07-14T04:06:29.500Z,15.60
2023-07-14T04:09:01.936Z,15.70
2023-07-14T04:11:28.940Z,15.80
2023-07-14T04:13:55.930Z,15.90
2023-07-14T04:16:25.063Z,15.90
2023-07-14T04:18:52.296Z,16.00
2023-07-14T04:21:25.444Z,16.00
2023-07-14T04:23:53.557Z,16.00
2023-07-14T04:26:21.086Z,16.10
2023-07-14T04:28:48.275Z,16.20
2023-07-14T04:31:15.737Z,16.20
2023-07-14T04:33:47.919Z,16.30
2023-07-14T04:36:15.781Z,16.40
2023-07-14T04:38:43.673Z,16.50
2023-07-14T04:41:14.333Z,16.60
2023-07-14T04:43:42.136Z,16.70
2023-07-14T04:46:09.014Z,16.80
2023-07-14T04:48:35.819Z,16.90
2023-07-14T04:51:02.618Z,17.10
2023-07-14T04:53:29.594Z,17.30
2023-07-14T04:55:56.401Z,17.50
2023-07-14T04:58:23.201Z,17.70
2023-07-14T05:00:50.712Z,17.80
2023-07-14T05:03:17.825Z,17.80
2023-07-14T05:05:46.494Z,17.80
2023-07-14T05:08:13.420Z,17.80
2023-07-14T05:10:40.295Z,17.90
2023-07-14T05:13:07.941Z,17.90
2023-07-14T05:15:35.107Z,17.90
2023-07-14T05:18:02.047Z,18.00
2023-07-14T05:20:30.479Z,18.00
2023-07-14T05:22:57.434Z,18.00
2023-07-14T05:25:24.729Z,18.00
2023-07-14T05:27:51.584Z,18.00
2023-07-14T05:30:21.910Z,18.00
2023-07-14T05:32:50.763Z,18.00
2023-07-14T05:35:18.855Z,18.00
2023-07-14T05:37:46.426Z,18.00
2023-07-14T05:40:14.998Z,18.10
2023-07-14T05:42:42.887Z,18.20
2023-07-14T05:45:10.796Z,18.20
2023-07-14T05:47:39.301Z,18.30
2023-07-14T05:50:07.346Z,18.40
2023-07-14T05:52:36.898Z,18.60
2023-07-14T05:55:07.251Z,18.70
2023-07-14T05:57:35.135Z,18.80
2023-07-14T06:00:02.035Z,18.80
2023-07-14T06:02:28.923Z,18.90
2023-07-14T06:04:55.895Z,19.00
2023-07-14T06:07:22.823Z,19.10
2023-07-14T06:09:49.834Z,19.20
2023-07-14T06:12:17.396Z,19.30
2023-07-14T06:14:44.318Z,19.50
2023-07-14T06:17:12.280Z,19.60
2023-07-14T06:19:39.358Z,19.70
2023-07-14T06:22:07.574Z,19.90
2023-07-14T06:24:37.960Z,19.90
2023-07-14T06:27:09.055Z,20.00
2023-07-14T06:29:38.040Z,20.00
2023-07-14T06:32:05.247Z,20.00
2023-07-14T06:34:32.081Z,20.00
2023-07-14T06:36:58.922Z,20.00
2023-07-14T06:39:25.757Z,20.20
2023-07-14T06:41:53.282Z,20.40
2023-07-14T06:44:25.845Z,20.80
2023-07-14T06:46:54.024Z,21.10
2023-07-14T06:49:23.723Z,21.20
2023-07-14T06:51:53.062Z,21.30
2023-07-14T06:54:19.937Z,21.40
2023-07-14T06:56:47.223Z,21.50
2023-07-14T06:59:14.080Z,21.50
2023-07-14T07:01:41.011Z,21.50
2023-07-14T07:04:07.957Z,21.60
2023-07-14T07:06:34.980Z,21.60
2023-07-14T07:09:01.866Z,21.70
2023-07-14T07:11:28.734Z,21.70
2023-07-14T07:13:55.628Z,21.80
2023-07-14T07:16:22.488Z,22.00
2023-07-14T07:18:49.322Z,22.50
2023-07-14T07:21:16.191Z,22.90
2023-07-14T07:23:43.002Z,23.20
2023-07-14T07:26:10.461Z,23.40
2023-07-14T07:28:37.436Z,23.50
2023-07-14T07:31:10.287Z,23.50
2023-07-14T07:33:38.722Z,23.60
2023-07-14T07:36:18.340Z,23.60
2023-07-14T07:38:50.358Z,23.70
2023-07-14T07:41:20.290Z,23.90
2023-07-14T07:43:47.675Z,24.00
2023-07-14T07:46:15.420Z,24.10
2023-07-14T07:48:44.955Z,24.40
2023-07-14T07:51:12.389Z,24.50
2023-07-14T07:53:39.236Z,24.80
2023-07-14T07:56:06.136Z,25.10
2023-07-14T07:58:33.141Z,25.40
2023-07-14T08:01:04.588Z,25.30
2023-07-14T08:03:31.869Z,25.30
2023-07-14T08:06:04.067Z,25.40
2023-07-14T08:08:31.399Z,25.50
2023-07-14T08:10:58.769Z,25.60
2023-07-14T08:13:30.424Z,25.70
2023-07-14T08:15:58.959Z,26.00
2023-07-14T08:18:26.498Z,26.10
2023-07-14T08:20:54.292Z,26.10
2023-07-14T08:23:22.855Z,25.90
2023-07-14T08:26:01.974Z,25.90
2023-07-14T08:28:29.865Z,26.00
2023-07-14T08:31:01.420Z,26.30
2023-07-14T08:33:28.728Z,26.50
2023-07-14T08:35:59.177Z,26.50
2023-07-14T08:38:26.154Z,26.60
2023-07-14T08:41:06.038Z,26.30
2023-07-14T08:43:51.634Z,26.00
2023-07-14T08:46:40.173Z,26.20
2023-07-14T08:49:24.263Z,26.60
2023-07-14T08:52:04.192Z,26.70
2023-07-14T08:55:07.878Z,26.40
2023-07-14T08:57:55.136Z,26.60
2023-07-14T09:00:31.537Z,26.80
2023-07-14T09:03:30.278Z,26.70
2023-07-14T09:06:03.158Z,26.70
2023-07-14T09:08:31.036Z,26.80
2023-07-14T09:11:15.435Z,27.00
2023-07-14T09:13:55.872Z,27.10
2023-07-14T09:16:25.604Z,27.50
2023-07-14T09:18:59.299Z,27.90
2023-07-14T09:22:01.350Z,28.10
2023-07-14T09:24:55.264Z,28.60
2023-07-14T09:27:27.905Z,28.60
2023-07-14T09:29:56.571Z,28.60
2023-07-14T09:32:38.438Z,28.80
2023-07-14T09:35:19.543Z,29.20
2023-07-14T09:37:47.142Z,29.50
2023-07-14T09:40:22.375Z,29.10
2023-07-14T09:42:55.718Z,29.00
2023-07-14T09:45:29.819Z,29.20
2023-07-14T09:48:14.586Z,29.50
2023-07-14T09:50:59.586Z,29.60
2023-07-14T09:53:27.211Z,29.70
2023-07-14T09:55:58.599Z,29.90
2023-07-14T09:58:30.458Z,30.00
2023-07-14T10:01:00.790Z,30.30
2023-07-14T10:03:44.463Z,30.40
2023-07-14T10:06:28.158Z,30.60
2023-07-14T10:09:00.469Z,30.70
2023-07-14T10:11:51.997Z,30.30
2023-07-14T10:14:29.047Z,30.50
2023-07-14T10:16:58.087Z,30.20
2023-07-14T10:19:46.492Z,30.50
2023-07-14T10:22:16.007Z,30.80
2023-07-14T10:24:47.133Z,31.20
2023-07-14T10:27:20.675Z,31.50
2023-07-14T10:30:14.943Z,31.60
2023-07-14T10:32:47.881Z,31.60
2023-07-14T10:35:21.055Z,31.60
2023-07-14T10:38:03.282Z,31.60
2023-07-14T10:40:38.124Z,31.10
2023-07-14T10:43:45.480Z,31.20
2023-07-14T10:46:44.790Z,30.70
2023-07-14T10:49:37.552Z,30.40
2023-07-14T10:52:36.627Z,29.90
2023-07-14T10:55:23.600Z,29.70
2023-07-14T10:57:59.693Z,29.00
2023-07-14T11:00:46.006Z,29.30
2023-07-14T11:03:19.198Z,29.80
2023-07-14T11:05:56.392Z,30.20
2023-07-14T11:08:29.357Z,30.60
2023-07-14T11:11:06.060Z,30.90
2023-07-14T11:13:48.643Z,31.30
2023-07-14T11:16:27.739Z,31.40
2023-07-14T11:19:09.212Z,31.70
2023-07-14T11:21:42.011Z,32.00
2023-07-14T11:24:22.380Z,32.30
2023-07-14T11:27:07.062Z,32.50
2023-07-14T11:30:13.940Z,32.60
2023-07-14T11:33:07.556Z,31.90
2023-07-14T11:35:39.690Z,30.20
2023-07-14T11:38:24.505Z,30.20
2023-07-14T11:40:53.819Z,30.60
2023-07-14T11:43:29.277Z,30.70
2023-07-14T11:46:09.864Z,30.80
2023-07-14T11:48:45.030Z,30.70
2023-07-14T11:51:15.667Z,30.80
2023-07-14T11:54:06.388Z,31.00
2023-07-14T11:56:40.994Z,31.10
2023-07-14T11:59:26.360Z,31.20
2023-07-14T12:01:56.629Z,31.00
2023-07-14T12:04:31.964Z,30.80
2023-07-14T12:07:25.936Z,30.70
2023-07-14T12:10:09.287Z,30.70
2023-07-14T12:12:38.232Z,30.60
2023-07-14T12:15:44.508Z,30.40
2023-07-14T12:18:23.453Z,30.30
2023-07-14T12:20:52.052Z,30.20
2023-07-14T12:23:22.962Z,30.00
2023-07-14T12:26:01.688Z,29.80
2023-07-14T12:28:34.630Z,29.70
2023-07-14T12:31:13.425Z,29.60
2023-07-14T12:33:40.910Z,29.50
2023-07-14T12:36:16.133Z,29.70
2023-07-14T12:38:50.855Z,29.70
2023-07-14T12:41:19.720Z,29.70
2023-07-14T12:43:55.525Z,29.70
2023-07-14T12:46:29.425Z,29.60
2023-07-14T12:49:13.635Z,29.60
2023-07-14T12:51:40.620Z,29.50
2023-07-14T12:54:15.484Z,29.20
2023-07-14T12:56:42.466Z,29.00
2023-07-14T12:59:19.370Z,28.90
2023-07-14T13:01:48.723Z,28.90
2023-07-14T13:04:17.547Z,28.90
2023-07-14T13:06:46.067Z,28.90
2023-07-14T13:09:24.598Z,28.90
2023-07-14T13:11:52.760Z,28.50
2023-07-14T13:14:35.616Z,27.90
2023-07-14T13:17:04.432Z,27.50
2023-07-14T13:19:47.248Z,27.30
2023-07-14T13:22:26.955Z,27.10
2023-07-14T13:25:06.678Z,27.30
2023-07-14T13:27:40.890Z,27.70
2023-07-14T13:30:34.428Z,27.70
2023-07-14T13:33:03.219Z,27.60
2023-07-14T13:35:34.580Z,27.50
2023-07-14T13:38:13.246Z,27.80
2023-07-14T13:40:41.876Z,28.00
2023-07-14T13:43:18.291Z,28.20
2023-07-14T13:45:56.274Z,28.30
2023-07-14T13:48:32.625Z,28.00
2023-07-14T13:51:01.009Z,27.90
2023-07-14T13:53:30.184Z,28.00
2023-07-14T13:55:58.122Z,27.90
2023-07-14T13:58:24.954Z,28.00
2023-07-14T14:00:51.914Z,28.00
2023-07-14T14:03:21.829Z,28.00
2023-07-14T14:05:48.708Z,28.00
2023-07-14T14:08:16.869Z,27.80
2023-07-14T14:10:44.153Z,27.70
2023-07-14T14:13:11.272Z,27.70
2023-07-14T14:15:47.394Z,27.80
2023-07-14T14:18:21.804Z,27.90
2023-07-14T14:20:49.994Z,27.70
2023-07-14T14:23:20.327Z,27.70
2023-07-14T14:25:47.660Z,27.80
2023-07-14T14:28:14.949Z,28.00
2023-07-14T14:30:49.992Z,28.10
2023-07-14T14:33:30.001Z,28.30
2023-07-14T14:35:57.426Z,28.30
2023-07-14T14:38:44.128Z,28.20
2023-07-14T14:41:23.303Z,28.10
2023-07-14T14:43:51.253Z,28.10
2023-07-14T14:46:18.229Z,28.10
2023-07-14T14:48:45.283Z,28.10
2023-07-14T14:51:15.472Z,28.10
2023-07-14T14:53:43.205Z,28.10
2023-07-14T14:56:27.584Z,28.10
2023-07-14T14:58:59.510Z,28.00
2023-07-14T15:01:39.743Z,27.90
2023-07-14T15:04:08.528Z,27.70
2023-07-14T15:06:35.475Z,27.60
2023-07-14T15:09:02.365Z,27.60
2023-07-14T15:11:29.300Z,27.50
2023-07-14T15:13:56.538Z,27.40
2023-07-14T15:16:23.702Z,27.20
2023-07-14T15:18:50.583Z,27.10
2023-07-14T15:21:23.020Z,27.00
2023-07-14T15:23:50.617Z,27.00
2023-07-14T15:26:24.744Z,27.00
2023-07-14T15:28:55.062Z,27.10
2023-07-14T15:31:22.578Z,27.10
2023-07-14T15:33:49.835Z,27.10
2023-07-14T15:36:19.004Z,27.10
2023-07-14T15:38:47.322Z,27.10
2023-07-14T15:41:22.792Z,27.10
2023-07-14T15:43:51.957Z,27.10
2023-07-14T15:46:20.220Z,27.20
2023-07-14T15:48:48.855Z,27.20
2023-07-14T15:51:31.359Z,27.20
2023-07-14T15:54:05.405Z,27.10
2023-07-14T15:56:33.190Z,27.20
2023-07-14T15:59:00.997Z,27.10
2023-07-14T16:01:31.551Z,27.10
2023-07-14T16:04:01.847Z,27.10
2023-07-14T16:06:31.327Z,27.10
2023-07-14T16:08:58.675Z,27.20
2023-07-14T16:11:34.764Z,27.10
2023-07-14T16:14:03.734Z,27.10
2023-07-14T16:16:31.915Z,27.10
2023-07-14T16:18:59.273Z,27.10
2023-07-14T16:21:32.091Z,27.00
2023-07-14T16:24:01.516Z,27.00
2023-07-14T16:26:28.981Z,27.00
2023-07-14T16:28:56.612Z,27.10
2023-07-14T16:31:25.565Z,27.00
2023-07-14T16:33:52.897Z,27.00
2023-07-14T16:36:29.229Z,27.00
2023-07-14T16:39:11.532Z,27.00
2023-07-14T16:41:38.426Z,27.00
2023-07-14T16:44:17.437Z,27.00
2023-07-14T16:46:51.740Z,26.90
2023-07-14T16:49:19.032Z,26.90
2023-07-14T16:51:50.490Z,26.90
2023-07-14T16:54:29.453Z,26.90
2023-07-14T16:56:56.775Z,26.90
2023-07-14T16:59:24.000Z,26.90
2023-07-14T17:01:50.958Z,26.90
2023-07-14T17:04:25.713Z,26.90
2023-07-14T17:06:55.345Z,26.90
2023-07-14T17:09:26.554Z,26.90
2023-07-14T17:11:56.784Z,26.80
2023-07-14T17:14:27.645Z,26.90
2023-07-14T17:19:22.765Z,26.70
2023-07-14T17:22:00.094Z,26.60
2023-07-14T17:24:28.076Z,26.60
2023-07-14T17:26:55.506Z,26.60
2023-07-14T17:29:36.557Z,26.50
2023-07-14T17:32:05.838Z,26.50
2023-07-14T17:34:33.190Z,26.40
2023-07-14T17:37:00.767Z,26.30
2023-07-14T17:39:44.256Z,26.30
2023-07-14T17:42:24.425Z,26.20
2023-07-14T17:44:54.205Z,26.10
2023-07-14T17:47:22.597Z,26.10
2023-07-14T17:49:50.064Z,26.00
2023-07-14T17:52:17.782Z,26.00
2023-07-14T17:54:45.208Z,26.00
2023-07-14T17:57:20.414Z,25.90
2023-07-14T17:59:51.861Z,25.80
2023-07-14T18:02:32.441Z,25.70
2023-07-14T18:04:59.984Z,25.70
2023-07-14T18:07:26.918Z,25.60
2023-07-14T18:09:54.040Z,25.60
2023-07-14T18:12:21.564Z,25.50
2023-07-14T18:14:48.553Z,25.40
2023-07-14T18:17:19.040Z,25.40
2023-07-14T18:19:46.323Z,25.30
2023-07-14T18:22:22.476Z,25.20
2023-07-14T18:24:49.382Z,25.20
2023-07-14T18:27:21.332Z,25.10
2023-07-14T18:29:48.691Z,25.10
2023-07-14T18:32:16.316Z,25.00
2023-07-14T18:34:45.302Z,24.90
2023-07-14T18:37:14.998Z,24.80
2023-07-14T18:39:43.371Z,24.80
2023-07-14T18:42:13.670Z,24.70
2023-07-14T18:44:40.827Z,24.60
2023-07-14T18:47:14.258Z,24.60
2023-07-14T18:49:42.138Z,24.50
2023-07-14T18:52:16.183Z,24.40
2023-07-14T18:54:43.870Z,24.30
2023-07-14T18:57:19.140Z,24.20
2023-07-14T18:59:46.587Z,24.20
2023-07-14T19:02:27.965Z,24.20
2023-07-14T19:04:58.468Z,24.10
2023-07-14T19:07:28.040Z,24.00
2023-07-14T19:09:55.241Z,24.00
2023-07-14T19:12:24.721Z,23.90
2023-07-14T19:14:51.730Z,23.80
2023-07-14T19:17:18.740Z,23.70
2023-07-14T19:19:45.913Z,23.70
2023-07-14T19:22:14.153Z,23.60
2023-07-14T19:24:41.041Z,23.50
2023-07-14T19:27:16.496Z,23.40
2023-07-14T19:29:43.477Z,23.30
2023-07-14T19:32:17.588Z,23.20
2023-07-14T19:34:49.281Z,23.10
2023-07-14T19:37:17.540Z,23.00
2023-07-14T19:39:44.440Z,22.90
2023-07-14T19:42:17.992Z,22.80
2023-07-14T19:44:50.248Z,22.70
2023-07-14T19:47:19.007Z,22.60
2023-07-14T19:49:46.175Z,22.50
2023-07-14T19:52:13.877Z,22.40
2023-07-14T19:54:41.218Z,22.30
2023-07-14T19:57:15.433Z,22.30
2023-07-14T19:59:43.196Z,22.20
2023-07-14T20:02:24.776Z,22.10
2023-07-14T20:04:51.799Z,21.90
2023-07-14T20:07:18.874Z,21.80
2023-07-14T20:09:46.372Z,21.70
2023-07-14T20:12:17.841Z,21.60
2023-07-14T20:14:45.008Z,21.60
2023-07-14T20:17:15.731Z,21.50
2023-07-14T20:19:42.902Z,21.40
2023-07-14T20:22:21.118Z,21.40
2023-07-14T20:24:48.917Z,21.30
2023-07-14T20:27:21.516Z,21.30
2023-07-14T20:29:50.293Z,21.10
2023-07-14T20:32:20.768Z,21.10
2023-07-14T20:34:47.903Z,21.00
2023-07-14T20:37:17.303Z,20.80
2023-07-14T20:39:44.921Z,20.80
2023-07-14T20:42:16.207Z,20.70
2023-07-14T20:44:46.980Z,20.70
2023-07-14T20:47:19.188Z,20.70
2023-07-14T20:49:48.045Z,20.60
2023-07-14T20:52:23.475Z,20.60
2023-07-14T20:54:53.644Z,20.50
2023-07-14T20:57:20.938Z,20.50
2023-07-14T20:59:49.742Z,20.40
2023-07-14T21:02:23.905Z,20.40
2023-07-14T21:04:51.602Z,20.30
2023-07-14T21:07:19.512Z,20.20
2023-07-14T21:09:48.072Z,20.10
2023-07-14T21:12:18.101Z,20.00
2023-07-14T21:14:44.985Z,20.00
2023-07-14T21:17:14.710Z,20.00
2023-07-14T21:19:41.935Z,20.00
2023-07-14T21:22:17.047Z,19.90
2023-07-14T21:24:44.533Z,19.90
2023-07-14T21:27:22.433Z,19.80
2023-07-14T21:29:49.817Z,19.80
2023-07-14T21:32:26.621Z,19.70
2023-07-14T21:34:55.506Z,19.70
2023-07-14T21:37:23.676Z,19.60
2023-07-14T21:39:51.839Z,19.60
2023-07-14T21:42:19.322Z,19.60
2023-07-14T21:44:46.725Z,19.60
2023-07-14T21:47:14.517Z,19.60
2023-07-14T21:49:41.771Z,19.60
2023-07-14T21:52:14.045Z,19.60
2023-07-14T21:54:41.187Z,19.50
2023-07-14T21:57:13.048Z,19.50
2023-07-14T21:59:39.920Z,19.50
2023-07-14T22:02:14.661Z,19.40
2023-07-14T22:04:43.188Z,19.40
2023-07-14T22:07:13.778Z,19.40
2023-07-14T22:09:41.176Z,19.30
2023-07-14T22:12:17.421Z,19.20
2023-07-14T22:14:44.345Z,19.20
2023-07-14T22:17:15.838Z,19.20
2023-07-14T22:19:42.869Z,19.10
2023-07-14T22:22:11.981Z,19.00
2023-07-14T22:24:39.154Z,19.00
2023-07-14T22:27:13.590Z,19.00
2023-07-14T22:29:43.641Z,19.00
2023-07-14T22:32:15.730Z,18.90
2023-07-14T22:34:43.426Z,18.90
2023-07-14T22:37:10.249Z,18.80
2023-07-14T22:39:38.730Z,18.80
2023-07-14T22:42:06.247Z,18.70
2023-07-14T22:44:33.041Z,18.80
2023-07-14T22:47:00.561Z,18.70
2023-07-14T22:49:28.245Z,18.80
2023-07-14T22:51:55.584Z,18.70
2023-07-14T22:54:22.820Z,18.60
2023-07-14T22:56:50.180Z,18.60
2023-07-14T22:59:17.397Z,18.60
2023-07-14T23:01:44.721Z,18.60
2023-07-14T23:04:12.883Z,18.60
2023-07-14T23:06:39.831Z,18.50
2023-07-14T23:09:07.062Z,18.60
2023-07-14T23:11:37.579Z,18.50
2023-07-14T23:14:05.120Z,18.50
2023-07-14T23:16:32.142Z,18.50
2023-07-14T23:19:00.095Z,18.50
2023-07-14T23:21:32.617Z,18.40
2023-07-14T23:24:02.346Z,18.40
2023-07-14T23:26:30.779Z,18.40
2023-07-14T23:28:58.077Z,18.40
2023-07-14T23:31:29.441Z,18.40
2023-07-14T23:33:56.983Z,18.30
2023-07-14T23:36:25.463Z,18.30
2023-07-14T23:38:53.449Z,18.30
2023-07-14T23:41:31.332Z,18.20
2023-07-14T23:44:06.079Z,18.20
2023-07-14T23:46:34.482Z,18.10
2023-07-14T23:49:01.314Z,18.10
2023-07-14T23:51:34.750Z,18.00
2023-07-14T23:54:05.332Z,18.00
2023-07-14T23:56:35.397Z,18.00
2023-07-14T23:59:02.480Z,17.90
